sensor_id;sensor_type;location;lat;lon;timestamp;temperature;humidity
20364;DHT22;10340;53.664;9.908;2023-02-01T00:00:58;5.50;99.90
20364;DHT22;10340;53.664;9.908;2023-02-01T00:03:25;5.50;99.90
20364;DHT22;10340;53.664;9.908;2023-02-01T00:05:56;5.40;99.90
20364;DHT22;10340;53.664;9.908;2023-02-01T00:08:23;5.30;99.90
20364;DHT22;10340;53.664;9.908;2023-02-01T00:10:59;5.20;99.90
20364;DHT22;10340;53.664;9.908;2023-02-01T00:13:28;5.20;99.90
20364;DHT22;10340;53.664;9.908;2023-02-01T00:16:02;5.20;99.90
20364;DHT22;10340;53.664;9.908;2023-02-01T00:18:29;5.10;99.90
20364;DHT22;10340;53.664;9.908;2023-02-01T00:20:56;5.10;99.90
20364;DHT22;10340;53.664;9.908;2023-02-01T00:23:24;5.10;99.90
20364;DHT22;10340;53.664;9.908;2023-02-01T00:25:51;5.10;99.90
20364;DHT22;10340;53.664;9.908;2023-02-01T00:28:19;5.20;99.90
20364;DHT22;10340;53.664;9.908;2023-02-01T00:30:46;5.10;99.90
20364;DHT22;10340;53.664;9.908;2023-02-01T00:33:13;5.20;99.90
20364;DHT22;10340;53.664;9.908;2023-02-01T00:35:40;5.20;99.90
20364;DHT22;10340;53.664;9.908;2023-02-01T00:38:07;5.20;99.90
20364;DHT22;10340;53.664;9.908;2023-02-01T00:40:34;5.30;99.90
20364;DHT22;10340;53.664;9.908;2023-02-01T00:43:01;5.30;99.90
20364;DHT22;10340;53.664;9.908;2023-02-01T00:45:29;5.40;99.90
20364;DHT22;10340;53.664;9.908;2023-02-01T00:47:56;5.40;99.90
20364;DHT22;10340;53.664;9.908;2023-02-01T00:50:23;5.50;99.90
20364;DHT22;10340;53.664;9.908;2023-02-01T00:52:50;5.50;99.90
20364;DHT22;10340;53.664;9.908;2023-02-01T00:55:17;5.50;99.90
20364;DHT22;10340;53.664;9.908;2023-02-01T00:57:44;5.60;99.90
20364;DHT22;10340;53.664;9.908;2023-02-01T01:00:11;5.60;99.90
20364;DHT22;10340;53.664;9.908;2023-02-01T01:02:41;5.50;99.90
20364;DHT22;10340;53.664;9.908;2023-02-01T01:05:08;5.50;99.90
20364;DHT22;10340;53.664;9.908;2023-02-01T01:07:35;5.50;99.90
20364;DHT22;10340;53.664;9.908;2023-02-01T01:10:02;5.50;99.90
20364;DHT22;10340;53.664;9.908;2023-02-01T01:12:29;5.50;99.90
20364;DHT22;10340;53.664;9.908;2023-02-01T01:14:56;5.60;99.90
20364;DHT22;10340;53.664;9.908;2023-02-01T01:17:23;5.60;99.90
20364;DHT22;10340;53.664;9.908;2023-02-01T01:19:52;5.60;99.90
20364;DHT22;10340;53.664;9.908;2023-02-01T01:22:19;5.60;99.90
20364;DHT22;10340;53.664;9.908;2023-02-01T01:24:46;5.60;99.90
20364;DHT22;10340;53.664;9.908;2023-02-01T01:27:12;5.60;99.90
20364;DHT22;10340;53.664;9.908;2023-02-01T01:29:39;5.60;99.90
20364;DHT22;10340;53.664;9.908;2023-02-01T01:32:06;5.60;99.90
20364;DHT22;10340;53.664;9.908;2023-02-01T01:34:33;5.60;99.90
20364;DHT22;10340;53.664;9.908;2023-02-01T01:37:02;5.60;99.90
20364;DHT22;10340;53.664;9.908;2023-02-01T01:39:29;5.60;99.90
20364;DHT22;10340;53.664;9.908;2023-02-01T01:41:56;5.60;99.90
20364;DHT22;10340;53.664;9.908;2023-02-01T01:44:59;5.60;99.90
20364;DHT22;10340;53.664;9.908;2023-02-01T01:47:27;5.60;99.90
20364;DHT22;10340;53.664;9.908;2023-02-01T01:49:56;5.60;99.90
20364;DHT22;10340;53.664;9.908;2023-02-01T01:52:24;5.60;99.90
20364;DHT22;10340;53.664;9.908;2023-02-01T01:54:53;5.60;99.90
20364;DHT22;10340;53.664;9.908;2023-02-01T01:57:23;5.60;99.90
20364;DHT22;10340;53.664;9.908;2023-02-01T01:59:58;5.70;99.90
20364;DHT22;10340;53.664;9.908;2023-02-01T02:02:26;5.70;99.90
20364;DHT22;10340;53.664;9.908;2023-02-01T02:04:53;5.70;99.90
20364;DHT22;10340;53.664;9.908;2023-02-01T02:07:25;5.70;99.90
20364;DHT22;10340;53.664;9.908;2023-02-01T02:09:53;5.70;99.90
20364;DHT22;10340;53.664;9.908;2023-02-01T02:12:20;5.70;99.90
20364;DHT22;10340;53.664;9.908;2023-02-01T02:14:47;5.70;99.90
20364;DHT22;10340;53.664;9.908;2023-02-01T02:17:24;5.70;99.90
20364;DHT22;10340;53.664;9.908;2023-02-01T02:20:27;5.70;99.90
20364;DHT22;10340;53.664;9.908;2023-02-01T02:29:17;5.70;99.90
20364;DHT22;10340;53.664;9.908;2023-02-01T02:31:58;5.70;99.90
20364;DHT22;10340;53.664;9.908;2023-02-01T02:34:36;5.70;99.90
20364;DHT22;10340;53.664;9.908;2023-02-01T02:37:11;5.70;99.90
20364;DHT22;10340;53.664;9.908;2023-02-01T02:39:48;5.80;99.90
20364;DHT22;10340;53.664;9.908;2023-02-01T02:42:22;5.80;99.90
20364;DHT22;10340;53.664;9.908;2023-02-01T02:45:14;5.80;99.90
20364;DHT22;10340;53.664;9.908;2023-02-01T02:48:10;5.70;99.90
20364;DHT22;10340;53.664;9.908;2023-02-01T02:50:42;5.70;99.90
20364;DHT22;10340;53.664;9.908;2023-02-01T02:53:33;5.70;99.90
20364;DHT22;10340;53.664;9.908;2023-02-01T02:56:21;5.60;99.90
20364;DHT22;10340;53.664;9.908;2023-02-01T02:59:08;5.60;99.90
20364;DHT22;10340;53.664;9.908;2023-02-01T03:01:53;5.50;99.90
20364;DHT22;10340;53.664;9.908;2023-02-01T03:04:38;5.50;99.90
20364;DHT22;10340;53.664;9.908;2023-02-01T03:07:42;5.40;99.90
20364;DHT22;10340;53.664;9.908;2023-02-01T03:10:06;5.30;99.90
20364;DHT22;10340;53.664;9.908;2023-02-01T03:12:37;5.30;99.90
20364;DHT22;10340;53.664;9.908;2023-02-01T03:15:29;5.30;99.90
20364;DHT22;10340;53.664;9.908;2023-02-01T03:17:59;5.20;99.90
20364;DHT22;10340;53.664;9.908;2023-02-01T03:20:29;5.20;99.90
20364;DHT22;10340;53.664;9.908;2023-02-01T03:22:59;5.10;99.90
20364;DHT22;10340;53.664;9.908;2023-02-01T03:25:29;5.10;99.90
20364;DHT22;10340;53.664;9.908;2023-02-01T03:28:00;5.00;99.90
20364;DHT22;10340;53.664;9.908;2023-02-01T03:30:31;5.00;99.90
20364;DHT22;10340;53.664;9.908;2023-02-01T03:33:00;5.00;99.90
20364;DHT22;10340;53.664;9.908;2023-02-01T03:35:30;5.00;99.90
20364;DHT22;10340;53.664;9.908;2023-02-01T03:38:06;5.00;99.90
20364;DHT22;10340;53.664;9.908;2023-02-01T03:40:36;5.00;99.90
20364;DHT22;10340;53.664;9.908;2023-02-01T03:43:05;5.00;99.90
20364;DHT22;10340;53.664;9.908;2023-02-01T03:45:35;5.00;99.90
20364;DHT22;10340;53.664;9.908;2023-02-01T03:48:05;5.00;99.90
20364;DHT22;10340;53.664;9.908;2023-02-01T03:50:34;5.10;99.90
20364;DHT22;10340;53.664;9.908;2023-02-01T03:53:05;5.10;99.90
20364;DHT22;10340;53.664;9.908;2023-02-01T03:55:35;5.10;99.90
20364;DHT22;10340;53.664;9.908;2023-02-01T03:58:08;5.10;99.90
20364;DHT22;10340;53.664;9.908;2023-02-01T04:00:36;5.10;99.90
20364;DHT22;10340;53.664;9.908;2023-02-01T04:03:04;5.10;99.90
20364;DHT22;10340;53.664;9.908;2023-02-01T04:05:31;5.10;99.90
20364;DHT22;10340;53.664;9.908;2023-02-01T04:07:58;5.10;99.90
20364;DHT22;10340;53.664;9.908;2023-02-01T04:10:27;5.10;99.90
20364;DHT22;10340;53.664;9.908;2023-02-01T04:12:54;5.10;99.90
20364;DHT22;10340;53.664;9.908;2023-02-01T04:15:21;5.10;99.90
20364;DHT22;10340;53.664;9.908;2023-02-01T04:17:48;5.00;99.90
20364;DHT22;10340;53.664;9.908;2023-02-01T04:20:15;5.00;99.90
20364;DHT22;10340;53.664;9.908;2023-02-01T04:22:42;5.00;99.90
20364;DHT22;10340;53.664;9.908;2023-02-01T04:25:10;5.00;99.90
20364;DHT22;10340;53.664;9.908;2023-02-01T04:27:38;5.00;99.90
20364;DHT22;10340;53.664;9.908;2023-02-01T04:30:06;5.00;99.90
20364;DHT22;10340;53.664;9.908;2023-02-01T04:32:35;5.00;99.90
20364;DHT22;10340;53.664;9.908;2023-02-01T04:35:02;5.00;99.90
20364;DHT22;10340;53.664;9.908;2023-02-01T04:37:29;5.00;99.90
20364;DHT22;10340;53.664;9.908;2023-02-01T04:39:56;5.00;99.90
20364;DHT22;10340;53.664;9.908;2023-02-01T04:42:23;4.90;99.90
20364;DHT22;10340;53.664;9.908;2023-02-01T04:44:51;4.90;99.90
20364;DHT22;10340;53.664;9.908;2023-02-01T04:47:18;4.90;99.90
20364;DHT22;10340;53.664;9.908;2023-02-01T04:49:45;4.80;99.90
20364;DHT22;10340;53.664;9.908;2023-02-01T04:52:12;4.80;99.90
20364;DHT22;10340;53.664;9.908;2023-02-01T04:54:39;4.80;99.90
20364;DHT22;10340;53.664;9.908;2023-02-01T04:57:06;4.80;99.90
20364;DHT22;10340;53.664;9.908;2023-02-01T04:59:33;4.70;99.90
20364;DHT22;10340;53.664;9.908;2023-02-01T05:02:02;4.70;99.90
20364;DHT22;10340;53.664;9.908;2023-02-01T05:04:29;4.70;99.90
20364;DHT22;10340;53.664;9.908;2023-02-01T05:06:55;4.60;99.90
20364;DHT22;10340;53.664;9.908;2023-02-01T05:09:23;4.60;99.90
20364;DHT22;10340;53.664;9.908;2023-02-01T05:11:50;4.60;99.90
20364;DHT22;10340;53.664;9.908;2023-02-01T05:14:35;4.60;99.90
20364;DHT22;10340;53.664;9.908;2023-02-01T05:17:03;4.50;99.90
20364;DHT22;10340;53.664;9.908;2023-02-01T05:19:30;4.40;99.90
20364;DHT22;10340;53.664;9.908;2023-02-01T05:21:57;4.30;99.90
20364;DHT22;10340;53.664;9.908;2023-02-01T05:24:24;4.30;99.90
20364;DHT22;10340;53.664;9.908;2023-02-01T05:26:52;4.20;99.90
20364;DHT22;10340;53.664;9.908;2023-02-01T05:29:19;4.20;99.90
20364;DHT22;10340;53.664;9.908;2023-02-01T05:31:47;4.10;99.90
20364;DHT22;10340;53.664;9.908;2023-02-01T05:34:15;4.10;99.90
20364;DHT22;10340;53.664;9.908;2023-02-01T05:36:43;4.00;99.90
20364;DHT22;10340;53.664;9.908;2023-02-01T05:39:10;3.90;99.90
20364;DHT22;10340;53.664;9.908;2023-02-01T05:41:37;3.90;99.90
20364;DHT22;10340;53.664;9.908;2023-02-01T05:44:04;3.90;99.90
20364;DHT22;10340;53.664;9.908;2023-02-01T05:46:33;3.70;99.90
20364;DHT22;10340;53.664;9.908;2023-02-01T05:49:00;3.70;99.90
20364;DHT22;10340;53.664;9.908;2023-02-01T05:51:28;3.70;99.90
20364;DHT22;10340;53.664;9.908;2023-02-01T05:53:55;3.70;99.90
20364;DHT22;10340;53.664;9.908;2023-02-01T05:56:22;3.60;99.90
20364;DHT22;10340;53.664;9.908;2023-02-01T05:58:49;3.60;99.90
20364;DHT22;10340;53.664;9.908;2023-02-01T06:01:16;3.60;99.90
20364;DHT22;10340;53.664;9.908;2023-02-01T06:03:43;3.60;99.90
20364;DHT22;10340;53.664;9.908;2023-02-01T06:06:10;3.50;99.90
20364;DHT22;10340;53.664;9.908;2023-02-01T06:08:38;3.50;99.90
20364;DHT22;10340;53.664;9.908;2023-02-01T06:11:06;3.50;99.90
20364;DHT22;10340;53.664;9.908;2023-02-01T06:13:33;3.40;99.90
20364;DHT22;10340;53.664;9.908;2023-02-01T06:16:01;3.40;99.90
20364;DHT22;10340;53.664;9.908;2023-02-01T06:18:28;3.40;99.90
20364;DHT22;10340;53.664;9.908;2023-02-01T06:20:57;3.40;99.90
20364;DHT22;10340;53.664;9.908;2023-02-01T06:23:25;3.40;99.90
20364;DHT22;10340;53.664;9.908;2023-02-01T06:25:58;3.30;99.90
20364;DHT22;10340;53.664;9.908;2023-02-01T06:28:26;3.40;99.90
20364;DHT22;10340;53.664;9.908;2023-02-01T06:30:55;3.40;99.90
20364;DHT22;10340;53.664;9.908;2023-02-01T06:33:23;3.40;99.90
20364;DHT22;10340;53.664;9.908;2023-02-01T06:35:56;3.40;99.90
20364;DHT22;10340;53.664;9.908;2023-02-01T06:38:24;3.50;99.90
20364;DHT22;10340;53.664;9.908;2023-02-01T06:40:54;3.50;99.90
20364;DHT22;10340;53.664;9.908;2023-02-01T06:43:22;3.50;99.90
20364;DHT22;10340;53.664;9.908;2023-02-01T06:45:49;3.50;99.90
20364;DHT22;10340;53.664;9.908;2023-02-01T06:48:16;3.60;99.90
20364;DHT22;10340;53.664;9.908;2023-02-01T06:50:43;3.70;99.90
20364;DHT22;10340;53.664;9.908;2023-02-01T06:53:11;3.80;99.90
20364;DHT22;10340;53.664;9.908;2023-02-01T06:55:37;3.90;99.90
20364;DHT22;10340;53.664;9.908;2023-02-01T06:58:06;3.90;99.90
20364;DHT22;10340;53.664;9.908;2023-02-01T07:00:33;3.90;99.90
20364;DHT22;10340;53.664;9.908;2023-02-01T07:03:00;4.00;99.90
20364;DHT22;10340;53.664;9.908;2023-02-01T07:05:27;4.00;99.90
20364;DHT22;10340;53.664;9.908;2023-02-01T07:07:54;4.20;99.90
20364;DHT22;10340;53.664;9.908;2023-02-01T07:10:21;4.20;99.90
20364;DHT22;10340;53.664;9.908;2023-02-01T07:12:48;4.30;99.90
20364;DHT22;10340;53.664;9.908;2023-02-01T07:15:17;4.40;99.90
20364;DHT22;10340;53.664;9.908;2023-02-01T07:17:44;4.40;99.90
20364;DHT22;10340;53.664;9.908;2023-02-01T07:20:12;4.40;99.90
20364;DHT22;10340;53.664;9.908;2023-02-01T07:22:39;4.50;99.90
20364;DHT22;10340;53.664;9.908;2023-02-01T07:25:07;4.50;99.90
20364;DHT22;10340;53.664;9.908;2023-02-01T07:27:34;4.50;99.90
20364;DHT22;10340;53.664;9.908;2023-02-01T07:30:01;4.60;99.90
20364;DHT22;10340;53.664;9.908;2023-02-01T07:32:30;4.60;99.90
20364;DHT22;10340;53.664;9.908;2023-02-01T07:34:57;4.60;99.90
20364;DHT22;10340;53.664;9.908;2023-02-01T07:37:24;4.70;99.90
20364;DHT22;10340;53.664;9.908;2023-02-01T07:39:51;4.70;99.90
20364;DHT22;10340;53.664;9.908;2023-02-01T07:42:18;4.70;99.90
20364;DHT22;10340;53.664;9.908;2023-02-01T07:44:45;4.70;99.90
20364;DHT22;10340;53.664;9.908;2023-02-01T07:47:12;4.60;99.90
20364;DHT22;10340;53.664;9.908;2023-02-01T07:49:41;4.60;99.90
20364;DHT22;10340;53.664;9.908;2023-02-01T07:52:08;4.70;99.90
20364;DHT22;10340;53.664;9.908;2023-02-01T07:54:36;4.80;99.90
20364;DHT22;10340;53.664;9.908;2023-02-01T07:57:03;4.80;99.90
20364;DHT22;10340;53.664;9.908;2023-02-01T07:59:30;4.90;99.90
20364;DHT22;10340;53.664;9.908;2023-02-01T08:01:57;4.90;99.90
20364;DHT22;10340;53.664;9.908;2023-02-01T08:04:23;5.00;99.90
20364;DHT22;10340;53.664;9.908;2023-02-01T08:06:51;5.10;99.90
20364;DHT22;10340;53.664;9.908;2023-02-01T08:09:18;5.20;99.90
20364;DHT22;10340;53.664;9.908;2023-02-01T08:11:45;5.20;99.90
20364;DHT22;10340;53.664;9.908;2023-02-01T08:14:12;5.30;99.90
20364;DHT22;10340;53.664;9.908;2023-02-01T08:16:39;5.30;99.90
20364;DHT22;10340;53.664;9.908;2023-02-01T08:19:06;5.30;99.90
20364;DHT22;10340;53.664;9.908;2023-02-01T08:21:33;5.40;99.90
20364;DHT22;10340;53.664;9.908;2023-02-01T08:24:09;5.40;99.90
20364;DHT22;10340;53.664;9.908;2023-02-01T08:26:36;5.50;99.90
20364;DHT22;10340;53.664;9.908;2023-02-01T08:29:05;5.50;99.90
20364;DHT22;10340;53.664;9.908;2023-02-01T08:31:33;5.60;99.90
20364;DHT22;10340;53.664;9.908;2023-02-01T08:34:01;5.70;99.90
20364;DHT22;10340;53.664;9.908;2023-02-01T08:36:30;5.70;99.90
20364;DHT22;10340;53.664;9.908;2023-02-01T08:38:57;5.70;99.90
20364;DHT22;10340;53.664;9.908;2023-02-01T08:41:28;5.70;99.90
20364;DHT22;10340;53.664;9.908;2023-02-01T08:43:56;5.70;99.90
20364;DHT22;10340;53.664;9.908;2023-02-01T08:46:23;5.60;99.90
20364;DHT22;10340;53.664;9.908;2023-02-01T08:48:50;5.50;99.90
20364;DHT22;10340;53.664;9.908;2023-02-01T08:51:21;5.50;99.90
20364;DHT22;10340;53.664;9.908;2023-02-01T08:53:48;5.50;99.90
20364;DHT22;10340;53.664;9.908;2023-02-01T08:56:16;5.50;99.90
20364;DHT22;10340;53.664;9.908;2023-02-01T08:58:45;5.50;99.90
20364;DHT22;10340;53.664;9.908;2023-02-01T09:01:15;5.50;99.90
20364;DHT22;10340;53.664;9.908;2023-02-01T09:03:42;5.60;99.90
20364;DHT22;10340;53.664;9.908;2023-02-01T09:06:11;5.70;99.90
20364;DHT22;10340;53.664;9.908;2023-02-01T09:08:39;5.80;99.90
20364;DHT22;10340;53.664;9.908;2023-02-01T09:11:21;5.90;99.90
20364;DHT22;10340;53.664;9.908;2023-02-01T09:13:58;5.90;99.90
20364;DHT22;10340;53.664;9.908;2023-02-01T09:16:35;5.90;99.90
20364;DHT22;10340;53.664;9.908;2023-02-01T09:19:05;6.00;99.90
20364;DHT22;10340;53.664;9.908;2023-02-01T09:21:34;6.10;99.90
20364;DHT22;10340;53.664;9.908;2023-02-01T09:24:12;6.20;99.90
20364;DHT22;10340;53.664;9.908;2023-02-01T09:26:44;6.30;99.90
20364;DHT22;10340;53.664;9.908;2023-02-01T09:29:17;6.40;99.90
20364;DHT22;10340;53.664;9.908;2023-02-01T09:32:07;6.40;99.90
20364;DHT22;10340;53.664;9.908;2023-02-01T09:34:40;6.40;99.90
20364;DHT22;10340;53.664;9.908;2023-02-01T09:37:14;6.50;99.90
20364;DHT22;10340;53.664;9.908;2023-02-01T09:39:49;6.50;99.90
20364;DHT22;10340;53.664;9.908;2023-02-01T09:42:24;6.60;99.90
20364;DHT22;10340;53.664;9.908;2023-02-01T09:45:14;6.50;99.90
20364;DHT22;10340;53.664;9.908;2023-02-01T09:47:54;6.50;99.90
20364;DHT22;10340;53.664;9.908;2023-02-01T09:50:40;6.50;99.90
20364;DHT22;10340;53.664;9.908;2023-02-01T09:53:17;6.50;99.90
20364;DHT22;10340;53.664;9.908;2023-02-01T09:55:59;6.40;99.90
20364;DHT22;10340;53.664;9.908;2023-02-01T09:58:58;6.50;99.90
20364;DHT22;10340;53.664;9.908;2023-02-01T10:01:46;6.50;99.90
20364;DHT22;10340;53.664;9.908;2023-02-01T10:06:57;6.70;99.90
20364;DHT22;10340;53.664;9.908;2023-02-01T10:09:38;6.70;99.90
20364;DHT22;10340;53.664;9.908;2023-02-01T10:15:26;6.50;99.90
20364;DHT22;10340;53.664;9.908;2023-02-01T10:18:10;6.50;99.90
20364;DHT22;10340;53.664;9.908;2023-02-01T10:20:50;6.60;99.90
20364;DHT22;10340;53.664;9.908;2023-02-01T10:23:35;6.60;99.90
20364;DHT22;10340;53.664;9.908;2023-02-01T10:26:09;6.60;99.90
20364;DHT22;10340;53.664;9.908;2023-02-01T10:28:39;6.50;99.90
20364;DHT22;10340;53.664;9.908;2023-02-01T10:31:09;6.40;99.90
20364;DHT22;10340;53.664;9.908;2023-02-01T10:33:42;6.50;99.90
20364;DHT22;10340;53.664;9.908;2023-02-01T10:36:14;6.50;99.90
20364;DHT22;10340;53.664;9.908;2023-02-01T10:38:43;6.50;99.90
20364;DHT22;10340;53.664;9.908;2023-02-01T10:41:13;6.50;99.90
20364;DHT22;10340;53.664;9.908;2023-02-01T10:43:42;6.50;99.90
20364;DHT22;10340;53.664;9.908;2023-02-01T10:46:10;6.50;99.90
20364;DHT22;10340;53.664;9.908;2023-02-01T10:48:38;6.40;99.90
20364;DHT22;10340;53.664;9.908;2023-02-01T10:51:10;6.40;99.90
20364;DHT22;10340;53.664;9.908;2023-02-01T10:53:42;6.40;99.90
20364;DHT22;10340;53.664;9.908;2023-02-01T10:56:11;6.30;99.90
20364;DHT22;10340;53.664;9.908;2023-02-01T10:58:44;6.30;99.90
20364;DHT22;10340;53.664;9.908;2023-02-01T11:01:16;6.30;99.90
20364;DHT22;10340;53.664;9.908;2023-02-01T11:03:52;6.30;99.90
20364;DHT22;10340;53.664;9.908;2023-02-01T11:06:26;6.30;99.90
20364;DHT22;10340;53.664;9.908;2023-02-01T11:08:55;6.30;99.90
20364;DHT22;10340;53.664;9.908;2023-02-01T11:11:23;6.10;99.90
20364;DHT22;10340;53.664;9.908;2023-02-01T11:13:56;6.00;99.90
20364;DHT22;10340;53.664;9.908;2023-02-01T11:16:31;5.90;99.90
20364;DHT22;10340;53.664;9.908;2023-02-01T11:19:00;5.80;99.90
20364;DHT22;10340;53.664;9.908;2023-02-01T11:21:27;5.80;99.90
20364;DHT22;10340;53.664;9.908;2023-02-01T11:23:55;5.80;99.90
20364;DHT22;10340;53.664;9.908;2023-02-01T11:26:24;5.80;99.90
20364;DHT22;10340;53.664;9.908;2023-02-01T11:28:56;5.90;99.90
20364;DHT22;10340;53.664;9.908;2023-02-01T11:31:25;5.90;99.90
20364;DHT22;10340;53.664;9.908;2023-02-01T11:33:55;6.00;99.90
20364;DHT22;10340;53.664;9.908;2023-02-01T11:36:27;6.00;99.90
20364;DHT22;10340;53.664;9.908;2023-02-01T11:39:09;6.10;99.90
20364;DHT22;10340;53.664;9.908;2023-02-01T11:41:41;6.20;99.90
20364;DHT22;10340;53.664;9.908;2023-02-01T11:44:20;6.30;99.90
20364;DHT22;10340;53.664;9.908;2023-02-01T11:46:48;6.30;99.90
20364;DHT22;10340;53.664;9.908;2023-02-01T11:49:20;6.30;99.90
20364;DHT22;10340;53.664;9.908;2023-02-01T11:51:59;6.30;99.90
20364;DHT22;10340;53.664;9.908;2023-02-01T11:54:51;6.30;99.90
20364;DHT22;10340;53.664;9.908;2023-02-01T11:57:31;6.30;99.90
20364;DHT22;10340;53.664;9.908;2023-02-01T12:00:16;6.30;99.90
20364;DHT22;10340;53.664;9.908;2023-02-01T12:05:52;6.20;99.90
20364;DHT22;10340;53.664;9.908;2023-02-01T12:08:34;6.10;99.90
20364;DHT22;10340;53.664;9.908;2023-02-01T12:11:21;6.10;99.90
20364;DHT22;10340;53.664;9.908;2023-02-01T12:14:02;6.00;99.90
20364;DHT22;10340;53.664;9.908;2023-02-01T12:16:39;6.00;99.90
20364;DHT22;10340;53.664;9.908;2023-02-01T12:19:26;5.90;99.90
20364;DHT22;10340;53.664;9.908;2023-02-01T12:22:13;5.90;99.90
20364;DHT22;10340;53.664;9.908;2023-02-01T12:25:03;5.80;99.90
20364;DHT22;10340;53.664;9.908;2023-02-01T12:30:59;5.70;99.90
20364;DHT22;10340;53.664;9.908;2023-02-01T12:33:37;5.50;99.90
20364;DHT22;10340;53.664;9.908;2023-02-01T12:36:12;5.30;99.90
20364;DHT22;10340;53.664;9.908;2023-02-01T12:38:52;5.10;99.90
20364;DHT22;10340;53.664;9.908;2023-02-01T12:41:35;5.00;99.90
20364;DHT22;10340;53.664;9.908;2023-02-01T12:44:08;4.90;99.90
20364;DHT22;10340;53.664;9.908;2023-02-01T12:46:40;4.80;99.90
20364;DHT22;10340;53.664;9.908;2023-02-01T12:49:12;4.80;99.90
20364;DHT22;10340;53.664;9.908;2023-02-01T12:51:44;4.80;99.90
20364;DHT22;10340;53.664;9.908;2023-02-01T12:54:15;4.70;99.90
20364;DHT22;10340;53.664;9.908;2023-02-01T12:56:48;4.70;99.90
20364;DHT22;10340;53.664;9.908;2023-02-01T12:59:21;4.70;99.90
20364;DHT22;10340;53.664;9.908;2023-02-01T13:01:54;4.70;99.90
20364;DHT22;10340;53.664;9.908;2023-02-01T13:04:29;4.60;99.90
20364;DHT22;10340;53.664;9.908;2023-02-01T13:07:04;4.60;99.90
20364;DHT22;10340;53.664;9.908;2023-02-01T13:09:39;4.70;99.90
20364;DHT22;10340;53.664;9.908;2023-02-01T13:12:12;4.70;99.90
20364;DHT22;10340;53.664;9.908;2023-02-01T13:14:44;4.70;99.90
20364;DHT22;10340;53.664;9.908;2023-02-01T13:17:15;4.80;99.90
20364;DHT22;10340;53.664;9.908;2023-02-01T13:19:46;4.90;99.90
20364;DHT22;10340;53.664;9.908;2023-02-01T13:22:18;5.10;99.90
20364;DHT22;10340;53.664;9.908;2023-02-01T13:24:49;5.20;99.90
20364;DHT22;10340;53.664;9.908;2023-02-01T13:27:18;5.30;99.90
20364;DHT22;10340;53.664;9.908;2023-02-01T13:29:53;5.40;99.90
20364;DHT22;10340;53.664;9.908;2023-02-01T13:39:02;5.90;99.90
20364;DHT22;10340;53.664;9.908;2023-02-01T13:41:37;6.00;99.90
20364;DHT22;10340;53.664;9.908;2023-02-01T13:44:14;6.10;99.90
20364;DHT22;10340;53.664;9.908;2023-02-01T13:46:46;6.00;99.90
20364;DHT22;10340;53.664;9.908;2023-02-01T13:49:20;5.90;99.90
20364;DHT22;10340;53.664;9.908;2023-02-01T13:51:50;5.80;99.90
20364;DHT22;10340;53.664;9.908;2023-02-01T13:54:28;5.60;99.90
20364;DHT22;10340;53.664;9.908;2023-02-01T13:56:56;5.40;99.90
20364;DHT22;10340;53.664;9.908;2023-02-01T14:00:00;5.30;99.90
20364;DHT22;10340;53.664;9.908;2023-02-01T14:03:09;4.90;99.90
20364;DHT22;10340;53.664;9.908;2023-02-01T14:06:18;4.50;99.90
20364;DHT22;10340;53.664;9.908;2023-02-01T14:09:32;4.30;99.90
20364;DHT22;10340;53.664;9.908;2023-02-01T14:15:21;4.00;99.90
20364;DHT22;10340;53.664;9.908;2023-02-01T14:17:49;3.90;99.90
20364;DHT22;10340;53.664;9.908;2023-02-01T14:20:43;3.90;99.90
20364;DHT22;10340;53.664;9.908;2023-02-01T14:23:30;4.00;99.90
20364;DHT22;10340;53.664;9.908;2023-02-01T14:28:56;3.90;99.90
20364;DHT22;10340;53.664;9.908;2023-02-01T14:31:51;3.90;99.90
20364;DHT22;10340;53.664;9.908;2023-02-01T14:34:33;4.00;99.90
20364;DHT22;10340;53.664;9.908;2023-02-01T14:37:03;4.20;99.90
20364;DHT22;10340;53.664;9.908;2023-02-01T14:39:38;4.30;99.90
20364;DHT22;10340;53.664;9.908;2023-02-01T14:42:24;4.50;99.90
20364;DHT22;10340;53.664;9.908;2023-02-01T14:44:53;4.50;99.90
20364;DHT22;10340;53.664;9.908;2023-02-01T14:47:32;4.60;99.90
20364;DHT22;10340;53.664;9.908;2023-02-01T14:50:30;4.60;99.90
20364;DHT22;10340;53.664;9.908;2023-02-01T14:53:20;4.70;99.90
20364;DHT22;10340;53.664;9.908;2023-02-01T14:55:51;4.70;99.90
20364;DHT22;10340;53.664;9.908;2023-02-01T14:58:29;4.70;99.90
20364;DHT22;10340;53.664;9.908;2023-02-01T15:01:00;4.70;99.90
20364;DHT22;10340;53.664;9.908;2023-02-01T15:03:52;4.70;99.90
20364;DHT22;10340;53.664;9.908;2023-02-01T15:06:31;4.70;99.90
20364;DHT22;10340;53.664;9.908;2023-02-01T15:09:00;4.70;99.90
20364;DHT22;10340;53.664;9.908;2023-02-01T15:11:28;4.70;99.90
20364;DHT22;10340;53.664;9.908;2023-02-01T15:13:55;4.70;99.90
20364;DHT22;10340;53.664;9.908;2023-02-01T15:16:24;4.70;99.90
20364;DHT22;10340;53.664;9.908;2023-02-01T15:21:48;4.70;99.90
20364;DHT22;10340;53.664;9.908;2023-02-01T15:24:20;4.70;99.90
20364;DHT22;10340;53.664;9.908;2023-02-01T15:26:48;4.80;99.90
20364;DHT22;10340;53.664;9.908;2023-02-01T15:29:23;4.80;99.90
20364;DHT22;10340;53.664;9.908;2023-02-01T15:31:53;4.80;99.90
20364;DHT22;10340;53.664;9.908;2023-02-01T15:34:20;4.70;99.90
20364;DHT22;10340;53.664;9.908;2023-02-01T15:36:49;4.70;99.90
20364;DHT22;10340;53.664;9.908;2023-02-01T15:39:22;4.70;99.90
20364;DHT22;10340;53.664;9.908;2023-02-01T15:41:53;4.70;99.90
20364;DHT22;10340;53.664;9.908;2023-02-01T15:44:28;4.70;99.90
20364;DHT22;10340;53.664;9.908;2023-02-01T15:46:57;4.70;99.90
20364;DHT22;10340;53.664;9.908;2023-02-01T15:49:27;4.80;99.90
20364;DHT22;10340;53.664;9.908;2023-02-01T15:51:57;4.80;99.90
20364;DHT22;10340;53.664;9.908;2023-02-01T15:54:27;4.80;99.90
20364;DHT22;10340;53.664;9.908;2023-02-01T15:56:58;4.80;99.90
20364;DHT22;10340;53.664;9.908;2023-02-01T15:59:30;4.80;99.90
20364;DHT22;10340;53.664;9.908;2023-02-01T16:01:58;4.80;99.90
20364;DHT22;10340;53.664;9.908;2023-02-01T16:04:27;4.80;99.90
20364;DHT22;10340;53.664;9.908;2023-02-01T16:06:58;4.90;99.90
20364;DHT22;10340;53.664;9.908;2023-02-01T16:09:36;5.00;99.90
20364;DHT22;10340;53.664;9.908;2023-02-01T16:12:04;5.10;99.90
20364;DHT22;10340;53.664;9.908;2023-02-01T16:14:46;5.10;99.90
20364;DHT22;10340;53.664;9.908;2023-02-01T16:17:13;5.20;99.90
20364;DHT22;10340;53.664;9.908;2023-02-01T16:19:40;5.20;99.90
20364;DHT22;10340;53.664;9.908;2023-02-01T16:22:08;5.20;99.90
20364;DHT22;10340;53.664;9.908;2023-02-01T16:24:35;5.30;99.90
20364;DHT22;10340;53.664;9.908;2023-02-01T16:27:02;5.40;99.90
20364;DHT22;10340;53.664;9.908;2023-02-01T16:29:30;5.40;99.90
20364;DHT22;10340;53.664;9.908;2023-02-01T16:31:57;5.40;99.90
20364;DHT22;10340;53.664;9.908;2023-02-01T16:34:24;5.50;99.90
20364;DHT22;10340;53.664;9.908;2023-02-01T16:36:52;5.50;99.90
20364;DHT22;10340;53.664;9.908;2023-02-01T16:39:24;5.50;99.90
20364;DHT22;10340;53.664;9.908;2023-02-01T16:41:53;5.50;99.90
20364;DHT22;10340;53.664;9.908;2023-02-01T16:44:20;5.50;99.90
20364;DHT22;10340;53.664;9.908;2023-02-01T16:46:47;5.50;99.90
20364;DHT22;10340;53.664;9.908;2023-02-01T16:49:18;5.60;99.90